sensor_id;sensor_type;location;lat;lon;timestamp;temperature;humidity
19870;DHT22;10097;50.862;4.696;2023-09-18T00:01:56;21.10;99.90
19870;DHT22;10097;50.862;4.696;2023-09-18T00:04:22;21.10;99.90
19870;DHT22;10097;50.862;4.696;2023-09-18T00:06:47;21.10;99.90
19870;DHT22;10097;50.862;4.696;2023-09-18T00:09:13;21.10;99.90
19870;DHT22;10097;50.862;4.696;2023-09-18T00:11:40;21.10;99.90
19870;DHT22;10097;50.862;4.696;2023-09-18T00:14:07;21.10;99.90
19870;DHT22;10097;50.862;4.696;2023-09-18T00:16:32;21.10;99.90
19870;DHT22;10097;50.862;4.696;2023-09-18T00:18:58;21.10;99.90
19870;DHT22;10097;50.862;4.696;2023-09-18T00:21:24;21.20;99.90
19870;DHT22;10097;50.862;4.696;2023-09-18T00:23:51;21.20;99.90
19870;DHT22;10097;50.862;4.696;2023-09-18T00:26:17;21.10;99.90
19870;DHT22;10097;50.862;4.696;2023-09-18T00:28:42;21.20;99.90
19870;DHT22;10097;50.862;4.696;2023-09-18T00:31:08;21.20;99.90
19870;DHT22;10097;50.862;4.696;2023-09-18T00:33:35;21.30;99.90
19870;DHT22;10097;50.862;4.696;2023-09-18T00:36:00;21.30;99.90
19870;DHT22;10097;50.862;4.696;2023-09-18T00:38:26;21.20;99.90
19870;DHT22;10097;50.862;4.696;2023-09-18T00:40:52;21.20;99.90
19870;DHT22;10097;50.862;4.696;2023-09-18T00:43:17;21.10;99.90
19870;DHT22;10097;50.862;4.696;2023-09-18T00:45:45;21.00;99.90
19870;DHT22;10097;50.862;4.696;2023-09-18T00:48:12;21.00;99.90
19870;DHT22;10097;50.862;4.696;2023-09-18T00:50:39;21.00;99.90
19870;DHT22;10097;50.862;4.696;2023-09-18T00:53:07;21.10;99.90
19870;DHT22;10097;50.862;4.696;2023-09-18T00:55:36;21.10;99.90
19870;DHT22;10097;50.862;4.696;2023-09-18T00:58:02;21.10;99.90
19870;DHT22;10097;50.862;4.696;2023-09-18T01:00:28;21.10;99.90
19870;DHT22;10097;50.862;4.696;2023-09-18T01:02:55;21.20;99.90
19870;DHT22;10097;50.862;4.696;2023-09-18T01:05:21;21.10;99.90
19870;DHT22;10097;50.862;4.696;2023-09-18T01:07:47;21.10;99.90
19870;DHT22;10097;50.862;4.696;2023-09-18T01:10:13;20.90;99.90
19870;DHT22;10097;50.862;4.696;2023-09-18T01:12:55;20.70;99.90
19870;DHT22;10097;50.862;4.696;2023-09-18T01:15:40;20.60;99.90
19870;DHT22;10097;50.862;4.696;2023-09-18T01:18:09;20.50;99.90
19870;DHT22;10097;50.862;4.696;2023-09-18T01:20:35;20.60;99.90
19870;DHT22;10097;50.862;4.696;2023-09-18T01:23:00;20.60;99.90
19870;DHT22;10097;50.862;4.696;2023-09-18T01:25:26;20.50;99.90
19870;DHT22;10097;50.862;4.696;2023-09-18T01:27:52;20.50;99.90
19870;DHT22;10097;50.862;4.696;2023-09-18T01:30:18;20.60;99.90
19870;DHT22;10097;50.862;4.696;2023-09-18T01:32:44;20.60;99.90
19870;DHT22;10097;50.862;4.696;2023-09-18T01:35:12;20.60;99.90
19870;DHT22;10097;50.862;4.696;2023-09-18T01:37:39;20.60;99.90
19870;DHT22;10097;50.862;4.696;2023-09-18T01:40:06;20.60;99.90
19870;DHT22;10097;50.862;4.696;2023-09-18T01:42:33;20.60;99.90
19870;DHT22;10097;50.862;4.696;2023-09-18T01:45:00;20.60;99.90
19870;DHT22;10097;50.862;4.696;2023-09-18T01:47:26;20.60;99.90
19870;DHT22;10097;50.862;4.696;2023-09-18T01:49:54;20.50;99.90
19870;DHT22;10097;50.862;4.696;2023-09-18T01:52:20;20.50;99.90
19870;DHT22;10097;50.862;4.696;2023-09-18T01:54:46;20.50;99.90
19870;DHT22;10097;50.862;4.696;2023-09-18T01:57:11;20.50;99.90
19870;DHT22;10097;50.862;4.696;2023-09-18T01:59:38;20.50;99.90
19870;DHT22;10097;50.862;4.696;2023-09-18T02:02:05;20.50;99.90
19870;DHT22;10097;50.862;4.696;2023-09-18T02:04:35;20.40;99.90
19870;DHT22;10097;50.862;4.696;2023-09-18T02:07:01;20.40;99.90
19870;DHT22;10097;50.862;4.696;2023-09-18T02:09:26;20.50;99.90
19870;DHT22;10097;50.862;4.696;2023-09-18T02:11:52;20.50;99.90
19870;DHT22;10097;50.862;4.696;2023-09-18T02:14:17;20.60;99.90
19870;DHT22;10097;50.862;4.696;2023-09-18T02:16:43;20.60;99.90
19870;DHT22;10097;50.862;4.696;2023-09-18T02:19:13;20.70;99.90
19870;DHT22;10097;50.862;4.696;2023-09-18T02:21:39;20.70;99.90
19870;DHT22;10097;50.862;4.696;2023-09-18T02:24:05;20.70;99.90
19870;DHT22;10097;50.862;4.696;2023-09-18T02:26:31;20.70;99.90
19870;DHT22;10097;50.862;4.696;2023-09-18T02:29:02;20.70;99.90
19870;DHT22;10097;50.862;4.696;2023-09-18T02:31:29;20.70;99.90
19870;DHT22;10097;50.862;4.696;2023-09-18T02:33:55;20.70;99.90
19870;DHT22;10097;50.862;4.696;2023-09-18T02:36:21;20.70;99.90
19870;DHT22;10097;50.862;4.696;2023-09-18T02:38:46;20.70;99.90
19870;DHT22;10097;50.862;4.696;2023-09-18T02:41:12;20.70;99.90
19870;DHT22;10097;50.862;4.696;2023-09-18T02:43:38;20.70;99.90
19870;DHT22;10097;50.862;4.696;2023-09-18T02:46:04;20.70;99.90
19870;DHT22;10097;50.862;4.696;2023-09-18T02:48:33;20.60;99.90
19870;DHT22;10097;50.862;4.696;2023-09-18T02:50:59;20.60;99.90
19870;DHT22;10097;50.862;4.696;2023-09-18T02:53:25;20.60;99.90
19870;DHT22;10097;50.862;4.696;2023-09-18T02:55:53;20.60;99.90
19870;DHT22;10097;50.862;4.696;2023-09-18T02:58:19;20.50;99.90
19870;DHT22;10097;50.862;4.696;2023-09-18T03:00:47;20.50;99.90
19870;DHT22;10097;50.862;4.696;2023-09-18T03:03:13;20.50;99.90
19870;DHT22;10097;50.862;4.696;2023-09-18T03:05:39;20.50;99.90
19870;DHT22;10097;50.862;4.696;2023-09-18T03:08:05;20.50;99.90
19870;DHT22;10097;50.862;4.696;2023-09-18T03:10:39;20.50;99.90
19870;DHT22;10097;50.862;4.696;2023-09-18T03:13:06;20.40;99.90
19870;DHT22;10097;50.862;4.696;2023-09-18T03:15:32;20.40;99.90
19870;DHT22;10097;50.862;4.696;2023-09-18T03:17:59;20.40;99.90
19870;DHT22;10097;50.862;4.696;2023-09-18T03:20:26;20.40;99.90
19870;DHT22;10097;50.862;4.696;2023-09-18T03:22:54;20.40;99.90
19870;DHT22;10097;50.862;4.696;2023-09-18T03:25:20;20.40;99.90
19870;DHT22;10097;50.862;4.696;2023-09-18T03:27:47;20.30;99.90
19870;DHT22;10097;50.862;4.696;2023-09-18T03:30:13;20.30;99.90
19870;DHT22;10097;50.862;4.696;2023-09-18T03:32:41;20.30;99.90
19870;DHT22;10097;50.862;4.696;2023-09-18T03:35:08;20.30;99.90
19870;DHT22;10097;50.862;4.696;2023-09-18T03:37:41;20.20;99.90
19870;DHT22;10097;50.862;4.696;2023-09-18T03:40:08;20.20;99.90
19870;DHT22;10097;50.862;4.696;2023-09-18T03:42:34;20.10;99.90
19870;DHT22;10097;50.862;4.696;2023-09-18T03:45:00;20.10;99.90
19870;DHT22;10097;50.862;4.696;2023-09-18T03:47:25;20.00;99.90
19870;DHT22;10097;50.862;4.696;2023-09-18T03:49:51;19.90;99.90
19870;DHT22;10097;50.862;4.696;2023-09-18T03:52:17;19.90;99.90
19870;DHT22;10097;50.862;4.696;2023-09-18T03:54:42;19.90;99.90
19870;DHT22;10097;50.862;4.696;2023-09-18T03:57:08;19.90;99.90
19870;DHT22;10097;50.862;4.696;2023-09-18T03:59:34;19.80;99.90
19870;DHT22;10097;50.862;4.696;2023-09-18T04:01:59;19.80;99.90
19870;DHT22;10097;50.862;4.696;2023-09-18T04:04:25;19.80;99.90
19870;DHT22;10097;50.862;4.696;2023-09-18T04:06:50;19.80;99.90
19870;DHT22;10097;50.862;4.696;2023-09-18T04:09:16;19.70;99.90
19870;DHT22;10097;50.862;4.696;2023-09-18T04:11:43;19.70;99.90
19870;DHT22;10097;50.862;4.696;2023-09-18T04:14:09;19.70;99.90
19870;DHT22;10097;50.862;4.696;2023-09-18T04:16:34;19.70;99.90
19870;DHT22;10097;50.862;4.696;2023-09-18T04:19:04;19.60;99.90
19870;DHT22;10097;50.862;4.696;2023-09-18T04:21:29;19.70;99.90
19870;DHT22;10097;50.862;4.696;2023-09-18T04:23:55;19.70;99.90
19870;DHT22;10097;50.862;4.696;2023-09-18T04:26:24;19.70;99.90
19870;DHT22;10097;50.862;4.696;2023-09-18T04:28:57;19.60;99.90
19870;DHT22;10097;50.862;4.696;2023-09-18T04:31:23;19.60;99.90
19870;DHT22;10097;50.862;4.696;2023-09-18T04:33:49;19.60;99.90
19870;DHT22;10097;50.862;4.696;2023-09-18T04:36:15;19.50;99.90
19870;DHT22;10097;50.862;4.696;2023-09-18T04:38:41;19.50;99.90
19870;DHT22;10097;50.862;4.696;2023-09-18T04:41:07;19.50;99.90
19870;DHT22;10097;50.862;4.696;2023-09-18T04:43:35;19.60;99.90
19870;DHT22;10097;50.862;4.696;2023-09-18T04:46:02;19.50;99.90
19870;DHT22;10097;50.862;4.696;2023-09-18T04:48:30;19.40;99.90
19870;DHT22;10097;50.862;4.696;2023-09-18T04:50:57;19.50;99.90
19870;DHT22;10097;50.862;4.696;2023-09-18T04:53:23;19.40;99.90
19870;DHT22;10097;50.862;4.696;2023-09-18T04:55:48;19.40;99.90
19870;DHT22;10097;50.862;4.696;2023-09-18T04:58:16;19.40;99.90
19870;DHT22;10097;50.862;4.696;2023-09-18T05:00:42;19.30;99.90
19870;DHT22;10097;50.862;4.696;2023-09-18T05:03:10;19.30;99.90
19870;DHT22;10097;50.862;4.696;2023-09-18T05:05:36;19.20;99.90
19870;DHT22;10097;50.862;4.696;2023-09-18T05:08:07;19.20;99.90
19870;DHT22;10097;50.862;4.696;2023-09-18T05:10:36;19.20;99.90
19870;DHT22;10097;50.862;4.696;2023-09-18T05:13:03;19.20;99.90
19870;DHT22;10097;50.862;4.696;2023-09-18T05:15:29;19.20;99.90
19870;DHT22;10097;50.862;4.696;2023-09-18T05:17:55;19.20;99.90
19870;DHT22;10097;50.862;4.696;2023-09-18T05:20:24;19.20;99.90
19870;DHT22;10097;50.862;4.696;2023-09-18T05:22:51;19.20;99.90
19870;DHT22;10097;50.862;4.696;2023-09-18T05:25:20;19.20;99.90
19870;DHT22;10097;50.862;4.696;2023-09-18T05:27:51;19.20;99.90
19870;DHT22;10097;50.862;4.696;2023-09-18T05:30:25;19.10;99.90
19870;DHT22;10097;50.862;4.696;2023-09-18T05:32:54;19.10;99.90
19870;DHT22;10097;50.862;4.696;2023-09-18T05:35:19;19.20;99.90
19870;DHT22;10097;50.862;4.696;2023-09-18T05:37:46;19.10;99.90
19870;DHT22;10097;50.862;4.696;2023-09-18T05:40:13;19.10;99.90
19870;DHT22;10097;50.862;4.696;2023-09-18T05:42:40;19.10;99.90
19870;DHT22;10097;50.862;4.696;2023-09-18T05:45:10;19.10;99.90
19870;DHT22;10097;50.862;4.696;2023-09-18T05:47:36;19.10;99.90
19870;DHT22;10097;50.862;4.696;2023-09-18T05:50:03;19.10;99.90
19870;DHT22;10097;50.862;4.696;2023-09-18T05:52:29;19.10;99.90
19870;DHT22;10097;50.862;4.696;2023-09-18T05:54:55;19.10;99.90
19870;DHT22;10097;50.862;4.696;2023-09-18T05:57:21;19.20;99.90
19870;DHT22;10097;50.862;4.696;2023-09-18T05:59:46;19.10;99.90
19870;DHT22;10097;50.862;4.696;2023-09-18T06:02:12;19.10;99.90
19870;DHT22;10097;50.862;4.696;2023-09-18T06:04:38;19.10;99.90
19870;DHT22;10097;50.862;4.696;2023-09-18T06:07:04;19.10;99.90
19870;DHT22;10097;50.862;4.696;2023-09-18T06:09:29;19.00;99.90
19870;DHT22;10097;50.862;4.696;2023-09-18T06:11:55;19.00;99.90
19870;DHT22;10097;50.862;4.696;2023-09-18T06:14:21;19.00;99.90
19870;DHT22;10097;50.862;4.696;2023-09-18T06:16:46;19.10;99.90
19870;DHT22;10097;50.862;4.696;2023-09-18T06:19:12;19.10;99.90
19870;DHT22;10097;50.862;4.696;2023-09-18T06:21:38;19.10;99.90
19870;DHT22;10097;50.862;4.696;2023-09-18T06:24:04;19.10;99.90
19870;DHT22;10097;50.862;4.696;2023-09-18T06:26:30;19.20;99.90
19870;DHT22;10097;50.862;4.696;2023-09-18T06:28:56;19.20;99.90
19870;DHT22;10097;50.862;4.696;2023-09-18T06:31:21;19.20;99.90
19870;DHT22;10097;50.862;4.696;2023-09-18T06:33:48;19.30;99.90
19870;DHT22;10097;50.862;4.696;2023-09-18T06:36:14;19.40;99.90
19870;DHT22;10097;50.862;4.696;2023-09-18T06:38:40;19.50;99.90
19870;DHT22;10097;50.862;4.696;2023-09-18T06:41:05;19.50;99.90
19870;DHT22;10097;50.862;4.696;2023-09-18T06:43:31;19.60;99.90
19870;DHT22;10097;50.862;4.696;2023-09-18T06:45:57;19.70;99.90
19870;DHT22;10097;50.862;4.696;2023-09-18T06:48:24;19.60;99.90
19870;DHT22;10097;50.862;4.696;2023-09-18T06:50:49;19.60;99.90
19870;DHT22;10097;50.862;4.696;2023-09-18T06:53:15;19.60;99.90
19870;DHT22;10097;50.862;4.696;2023-09-18T06:55:41;19.70;99.90
19870;DHT22;10097;50.862;4.696;2023-09-18T06:58:07;19.70;99.90
19870;DHT22;10097;50.862;4.696;2023-09-18T07:00:32;19.70;99.90
19870;DHT22;10097;50.862;4.696;2023-09-18T07:02:58;19.60;99.90
19870;DHT22;10097;50.862;4.696;2023-09-18T07:05:23;19.70;99.90
19870;DHT22;10097;50.862;4.696;2023-09-18T07:07:49;19.70;99.90
19870;DHT22;10097;50.862;4.696;2023-09-18T07:10:15;19.70;99.90
19870;DHT22;10097;50.862;4.696;2023-09-18T07:12:41;19.80;99.90
19870;DHT22;10097;50.862;4.696;2023-09-18T07:15:07;19.80;99.90
19870;DHT22;10097;50.862;4.696;2023-09-18T07:17:33;19.80;99.90
19870;DHT22;10097;50.862;4.696;2023-09-18T07:20:00;19.70;99.90
19870;DHT22;10097;50.862;4.696;2023-09-18T07:22:26;19.70;99.90
19870;DHT22;10097;50.862;4.696;2023-09-18T07:24:52;19.70;99.90
19870;DHT22;10097;50.862;4.696;2023-09-18T07:27:17;19.70;99.90
19870;DHT22;10097;50.862;4.696;2023-09-18T07:29:43;19.60;99.90
19870;DHT22;10097;50.862;4.696;2023-09-18T07:32:09;19.60;99.90
19870;DHT22;10097;50.862;4.696;2023-09-18T07:34:35;19.70;99.90
19870;DHT22;10097;50.862;4.696;2023-09-18T07:37:01;19.70;99.90
19870;DHT22;10097;50.862;4.696;2023-09-18T07:39:26;19.70;99.90
19870;DHT22;10097;50.862;4.696;2023-09-18T07:41:52;19.70;99.90
19870;DHT22;10097;50.862;4.696;2023-09-18T07:44:21;19.70;99.90
19870;DHT22;10097;50.862;4.696;2023-09-18T07:46:47;19.80;99.90
19870;DHT22;10097;50.862;4.696;2023-09-18T07:49:13;19.90;99.90
19870;DHT22;10097;50.862;4.696;2023-09-18T07:51:39;19.90;99.90
19870;DHT22;10097;50.862;4.696;2023-09-18T07:54:07;19.90;99.90
19870;DHT22;10097;50.862;4.696;2023-09-18T07:56:32;19.90;99.90
19870;DHT22;10097;50.862;4.696;2023-09-18T07:58:59;20.00;99.90
19870;DHT22;10097;50.862;4.696;2023-09-18T08:01:25;20.00;99.90
19870;DHT22;10097;50.862;4.696;2023-09-18T08:03:51;19.90;99.90
19870;DHT22;10097;50.862;4.696;2023-09-18T08:06:17;20.00;99.90
19870;DHT22;10097;50.862;4.696;2023-09-18T08:08:45;20.10;99.90
19870;DHT22;10097;50.862;4.696;2023-09-18T08:11:11;20.20;99.90
19870;DHT22;10097;50.862;4.696;2023-09-18T08:13:37;20.30;99.90
19870;DHT22;10097;50.862;4.696;2023-09-18T08:16:05;20.40;99.90
19870;DHT22;10097;50.862;4.696;2023-09-18T08:18:31;20.50;99.90
19870;DHT22;10097;50.862;4.696;2023-09-18T08:20:57;20.50;99.90
19870;DHT22;10097;50.862;4.696;2023-09-18T08:23:27;20.50;99.90
19870;DHT22;10097;50.862;4.696;2023-09-18T08:25:53;20.50;99.90
19870;DHT22;10097;50.862;4.696;2023-09-18T08:28:22;20.50;99.90
19870;DHT22;10097;50.862;4.696;2023-09-18T08:30:48;20.60;99.90
19870;DHT22;10097;50.862;4.696;2023-09-18T08:33:14;20.80;99.90
19870;DHT22;10097;50.862;4.696;2023-09-18T08:35:39;20.90;99.90
19870;DHT22;10097;50.862;4.696;2023-09-18T08:38:05;21.10;99.90
19870;DHT22;10097;50.862;4.696;2023-09-18T08:40:33;21.40;99.90
19870;DHT22;10097;50.862;4.696;2023-09-18T08:42:59;21.70;99.90
19870;DHT22;10097;50.862;4.696;2023-09-18T08:46:05;21.90;99.90
19870;DHT22;10097;50.862;4.696;2023-09-18T08:48:28;22.00;99.90
19870;DHT22;10097;50.862;4.696;2023-09-18T08:51:04;22.10;99.90
19870;DHT22;10097;50.862;4.696;2023-09-18T08:53:35;22.00;99.90
19870;DHT22;10097;50.862;4.696;2023-09-18T08:56:03;22.20;99.90
19870;DHT22;10097;50.862;4.696;2023-09-18T08:58:34;22.30;99.90
19870;DHT22;10097;50.862;4.696;2023-09-18T09:01:03;22.50;99.90
19870;DHT22;10097;50.862;4.696;2023-09-18T09:03:31;22.60;99.90
19870;DHT22;10097;50.862;4.696;2023-09-18T09:05:59;22.30;99.90
19870;DHT22;10097;50.862;4.696;2023-09-18T09:08:28;22.30;99.90
19870;DHT22;10097;50.862;4.696;2023-09-18T09:10:54;22.20;99.90
19870;DHT22;10097;50.862;4.696;2023-09-18T09:13:19;22.10;99.90
19870;DHT22;10097;50.862;4.696;2023-09-18T09:15:55;22.30;99.90
19870;DHT22;10097;50.862;4.696;2023-09-18T09:18:24;22.50;99.90
19870;DHT22;10097;50.862;4.696;2023-09-18T09:21:08;22.70;99.90
19870;DHT22;10097;50.862;4.696;2023-09-18T09:23:52;22.80;99.90
19870;DHT22;10097;50.862;4.696;2023-09-18T09:26:20;23.10;99.90
19870;DHT22;10097;50.862;4.696;2023-09-18T09:28:46;22.90;99.90
19870;DHT22;10097;50.862;4.696;2023-09-18T09:31:31;22.70;99.90
19870;DHT22;10097;50.862;4.696;2023-09-18T09:33:57;22.70;99.90
19870;DHT22;10097;50.862;4.696;2023-09-18T09:36:24;22.50;99.90
19870;DHT22;10097;50.862;4.696;2023-09-18T09:38:55;22.70;99.90
19870;DHT22;10097;50.862;4.696;2023-09-18T09:41:22;22.60;99.90
19870;DHT22;10097;50.862;4.696;2023-09-18T09:43:48;22.90;99.90
19870;DHT22;10097;50.862;4.696;2023-09-18T09:46:18;23.20;99.90
19870;DHT22;10097;50.862;4.696;2023-09-18T09:49:00;23.60;99.90
19870;DHT22;10097;50.862;4.696;2023-09-18T09:51:27;23.80;99.90
19870;DHT22;10097;50.862;4.696;2023-09-18T09:53:53;23.90;99.90
19870;DHT22;10097;50.862;4.696;2023-09-18T09:56:19;24.10;99.90
19870;DHT22;10097;50.862;4.696;2023-09-18T09:59:04;24.00;99.90
19870;DHT22;10097;50.862;4.696;2023-09-18T10:01:33;23.80;99.90
19870;DHT22;10097;50.862;4.696;2023-09-18T10:04:04;23.40;99.90
19870;DHT22;10097;50.862;4.696;2023-09-18T10:06:34;23.20;99.90
19870;DHT22;10097;50.862;4.696;2023-09-18T10:09:02;23.50;99.90
19870;DHT22;10097;50.862;4.696;2023-09-18T10:11:31;23.40;99.90
19870;DHT22;10097;50.862;4.696;2023-09-18T10:14:02;23.40;99.90
19870;DHT22;10097;50.862;4.696;2023-09-18T10:16:30;23.20;99.90
19870;DHT22;10097;50.862;4.696;2023-09-18T10:19:38;23.10;99.90
19870;DHT22;10097;50.862;4.696;2023-09-18T10:22:12;23.10;99.90
19870;DHT22;10097;50.862;4.696;2023-09-18T10:24:44;23.10;99.90
19870;DHT22;10097;50.862;4.696;2023-09-18T10:27:13;23.50;99.90
19870;DHT22;10097;50.862;4.696;2023-09-18T10:29:41;23.70;99.90
19870;DHT22;10097;50.862;4.696;2023-09-18T10:32:07;23.50;99.90
19870;DHT22;10097;50.862;4.696;2023-09-18T10:34:34;23.40;99.90
19870;DHT22;10097;50.862;4.696;2023-09-18T10:37:01;23.40;99.90
19870;DHT22;10097;50.862;4.696;2023-09-18T10:39:39;23.70;99.90
19870;DHT22;10097;50.862;4.696;2023-09-18T10:42:08;23.80;99.90
19870;DHT22;10097;50.862;4.696;2023-09-18T10:44:34;23.60;99.90
19870;DHT22;10097;50.862;4.696;2023-09-18T10:47:02;23.70;99.90
19870;DHT22;10097;50.862;4.696;2023-09-18T10:49:31;23.80;99.90
19870;DHT22;10097;50.862;4.696;2023-09-18T10:51:57;24.10;99.90
19870;DHT22;10097;50.862;4.696;2023-09-18T10:54:25;24.20;99.90
19870;DHT22;10097;50.862;4.696;2023-09-18T10:56:51;24.50;99.90
19870;DHT22;10097;50.862;4.696;2023-09-18T10:59:18;24.50;99.90
19870;DHT22;10097;50.862;4.696;2023-09-18T11:01:44;24.50;99.90
19870;DHT22;10097;50.862;4.696;2023-09-18T11:04:10;24.40;99.90
19870;DHT22;10097;50.862;4.696;2023-09-18T11:09:27;24.40;99.90
19870;DHT22;10097;50.862;4.696;2023-09-18T11:17:39;25.00;99.90
19870;DHT22;10097;50.862;4.696;2023-09-18T11:20:11;25.20;99.90
19870;DHT22;10097;50.862;4.696;2023-09-18T11:22:55;25.00;99.90
19870;DHT22;10097;50.862;4.696;2023-09-18T11:28:01;25.00;99.90
19870;DHT22;10097;50.862;4.696;2023-09-18T11:30:28;24.90;99.90
19870;DHT22;10097;50.862;4.696;2023-09-18T11:32:54;24.60;99.90
19870;DHT22;10097;50.862;4.696;2023-09-18T11:35:21;24.60;99.90
19870;DHT22;10097;50.862;4.696;2023-09-18T11:37:47;24.80;99.90
19870;DHT22;10097;50.862;4.696;2023-09-18T11:40:33;24.80;99.90
19870;DHT22;10097;50.862;4.696;2023-09-18T11:43:28;24.90;99.90
19870;DHT22;10097;50.862;4.696;2023-09-18T11:46:00;24.70;99.90
19870;DHT22;10097;50.862;4.696;2023-09-18T11:48:30;24.50;99.90
19870;DHT22;10097;50.862;4.696;2023-09-18T11:51:00;24.50;99.90
19870;DHT22;10097;50.862;4.696;2023-09-18T11:53:28;24.40;99.90
19870;DHT22;10097;50.862;4.696;2023-09-18T11:55:54;24.30;99.90
19870;DHT22;10097;50.862;4.696;2023-09-18T11:58:21;24.20;99.90
19870;DHT22;10097;50.862;4.696;2023-09-18T12:00:52;24.30;99.90
19870;DHT22;10097;50.862;4.696;2023-09-18T12:03:21;24.10;99.90
19870;DHT22;10097;50.862;4.696;2023-09-18T12:05:56;24.00;99.90
19870;DHT22;10097;50.862;4.696;2023-09-18T12:08:22;24.20;99.90
19870;DHT22;10097;50.862;4.696;2023-09-18T12:10:51;24.50;99.90
19870;DHT22;10097;50.862;4.696;2023-09-18T12:13:17;24.80;99.90
19870;DHT22;10097;50.862;4.696;2023-09-18T12:15:43;24.80;99.90
19870;DHT22;10097;50.862;4.696;2023-09-18T12:18:10;25.00;99.90
19870;DHT22;10097;50.862;4.696;2023-09-18T12:20:49;25.00;99.90
19870;DHT22;10097;50.862;4.696;2023-09-18T12:23:16;25.20;99.90
19870;DHT22;10097;50.862;4.696;2023-09-18T12:25:47;25.30;99.90
19870;DHT22;10097;50.862;4.696;2023-09-18T12:28:14;25.50;99.90
19870;DHT22;10097;50.862;4.696;2023-09-18T12:30:41;25.90;99.90
19870;DHT22;10097;50.862;4.696;2023-09-18T12:33:06;26.10;99.90
19870;DHT22;10097;50.862;4.696;2023-09-18T12:35:32;26.20;99.90
19870;DHT22;10097;50.862;4.696;2023-09-18T12:37:59;26.50;99.90
19870;DHT22;10097;50.862;4.696;2023-09-18T12:40:27;26.40;99.90
19870;DHT22;10097;50.862;4.696;2023-09-18T12:42:57;26.50;99.90
19870;DHT22;10097;50.862;4.696;2023-09-18T12:45:26;26.40;99.90
19870;DHT22;10097;50.862;4.696;2023-09-18T12:47:55;26.60;99.90
19870;DHT22;10097;50.862;4.696;2023-09-18T12:50:21;26.90;99.90
19870;DHT22;10097;50.862;4.696;2023-09-18T12:52:47;27.20;99.90
19870;DHT22;10097;50.862;4.696;2023-09-18T12:55:23;27.50;99.90
19870;DHT22;10097;50.862;4.696;2023-09-18T12:57:50;27.50;99.90
19870;DHT22;10097;50.862;4.696;2023-09-18T13:00:20;27.40;99.90
19870;DHT22;10097;50.862;4.696;2023-09-18T13:02:49;27.60;99.90
19870;DHT22;10097;50.862;4.696;2023-09-18T13:05:21;27.90;99.90
19870;DHT22;10097;50.862;4.696;2023-09-18T13:07:50;28.20;99.90
19870;DHT22;10097;50.862;4.696;2023-09-18T13:10:16;28.40;99.90
19870;DHT22;10097;50.862;4.696;2023-09-18T13:12:52;28.60;99.90
19870;DHT22;10097;50.862;4.696;2023-09-18T13:15:32;28.40;99.90
19870;DHT22;10097;50.862;4.696;2023-09-18T13:18:00;28.40;99.90
19870;DHT22;10097;50.862;4.696;2023-09-18T13:20:28;28.70;99.90
19870;DHT22;10097;50.862;4.696;2023-09-18T13:22:56;28.90;99.90
19870;DHT22;10097;50.862;4.696;2023-09-18T13:25:28;28.60;99.90
19870;DHT22;10097;50.862;4.696;2023-09-18T13:27:54;28.40;99.90
19870;DHT22;10097;50.862;4.696;2023-09-18T13:30:21;28.40;99.90
19870;DHT22;10097;50.862;4.696;2023-09-18T13:32:50;28.20;99.90
19870;DHT22;10097;50.862;4.696;2023-09-18T13:35:17;28.40;99.90
19870;DHT22;10097;50.862;4.696;2023-09-18T13:37:43;28.30;99.90
19870;DHT22;10097;50.862;4.696;2023-09-18T13:40:10;28.10;99.90
19870;DHT22;10097;50.862;4.696;2023-09-18T13:42:37;28.30;99.90
19870;DHT22;10097;50.862;4.696;2023-09-18T13:45:03;28.60;99.90
19870;DHT22;10097;50.862;4.696;2023-09-18T13:47:33;28.60;99.90
19870;DHT22;10097;50.862;4.696;2023-09-18T13:50:03;28.40;99.90
19870;DHT22;10097;50.862;4.696;2023-09-18T13:52:32;28.80;99.90
19870;DHT22;10097;50.862;4.696;2023-09-18T13:54:57;28.70;99.90
19870;DHT22;10097;50.862;4.696;2023-09-18T13:57:23;28.50;99.90
19870;DHT22;10097;50.862;4.696;2023-09-18T13:59:49;28.50;99.90
19870;DHT22;10097;50.862;4.696;2023-09-18T14:02:16;28.60;99.90
19870;DHT22;10097;50.862;4.696;2023-09-18T14:04:42;28.70;99.90
19870;DHT22;10097;50.862;4.696;2023-09-18T14:07:09;28.80;99.90
19870;DHT22;10097;50.862;4.696;2023-09-18T14:09:35;28.70;99.90
19870;DHT22;10097;50.862;4.696;2023-09-18T14:12:01;28.70;99.90
19870;DHT22;10097;50.862;4.696;2023-09-18T14:14:28;28.70;99.90
19870;DHT22;10097;50.862;4.696;2023-09-18T14:16:54;28.80;99.90
19870;DHT22;10097;50.862;4.696;2023-09-18T14:19:20;29.00;99.90
19870;DHT22;10097;50.862;4.696;2023-09-18T14:21:46;28.80;99.90
19870;DHT22;10097;50.862;4.696;2023-09-18T14:24:12;28.60;99.90
19870;DHT22;10097;50.862;4.696;2023-09-18T14:26:37;28.40;99.90
19870;DHT22;10097;50.862;4.696;2023-09-18T14:29:10;28.10;99.90
19870;DHT22;10097;50.862;4.696;2023-09-18T14:31:39;27.80;99.90
19870;DHT22;10097;50.862;4.696;2023-09-18T14:34:05;27.60;99.90
19870;DHT22;10097;50.862;4.696;2023-09-18T14:36:31;27.30;99.90
19870;DHT22;10097;50.862;4.696;2023-09-18T14:38:59;27.00;99.90
19870;DHT22;10097;50.862;4.696;2023-09-18T14:41:26;26.80;99.90
19870;DHT22;10097;50.862;4.696;2023-09-18T14:43:52;26.40;99.90
19870;DHT22;10097;50.862;4.696;2023-09-18T14:46:18;26.10;99.90
19870;DHT22;10097;50.862;4.696;2023-09-18T14:48:43;25.90;99.90
19870;DHT22;10097;50.862;4.696;2023-09-18T14:51:09;25.70;99.90
19870;DHT22;10097;50.862;4.696;2023-09-18T14:53:35;25.60;99.90
19870;DHT22;10097;50.862;4.696;2023-09-18T14:56:00;25.40;99.90
19870;DHT22;10097;50.862;4.696;2023-09-18T14:58:26;25.30;99.90
19870;DHT22;10097;50.862;4.696;2023-09-18T15:00:53;25.20;99.90
19870;DHT22;10097;50.862;4.696;2023-09-18T15:03:19;25.20;99.90
19870;DHT22;10097;50.862;4.696;2023-09-18T15:05:44;24.90;99.90
19870;DHT22;10097;50.862;4.696;2023-09-18T15:08:10;24.60;99.90
19870;DHT22;10097;50.862;4.696;2023-09-18T15:10:37;24.40;99.90
19870;DHT22;10097;50.862;4.696;2023-09-18T15:13:03;23.80;99.90
19870;DHT22;10097;50.862;4.696;2023-09-18T15:15:28;23.20;99.90
19870;DHT22;10097;50.862;4.696;2023-09-18T15:17:54;22.10;99.90
19870;DHT22;10097;50.862;4.696;2023-09-18T15:20:20;21.00;99.90
19870;DHT22;10097;50.862;4.696;2023-09-18T15:22:49;20.70;99.90
19870;DHT22;10097;50.862;4.696;2023-09-18T15:25:15;20.30;99.90
19870;DHT22;10097;50.862;4.696;2023-09-18T15:27:42;20.20;99.90
19870;DHT22;10097;50.862;4.696;2023-09-18T15:30:08;20.10;99.90
19870;DHT22;10097;50.862;4.696;2023-09-18T15:32:53;20.00;99.90
19870;DHT22;10097;50.862;4.696;2023-09-18T15:35:20;20.00;99.90
19870;DHT22;10097;50.862;4.696;2023-09-18T15:37:46;20.10;99.90
19870;DHT22;10097;50.862;4.696;2023-09-18T15:40:12;20.10;99.90
19870;DHT22;10097;50.862;4.696;2023-09-18T15:42:40;20.00;99.90
19870;DHT22;10097;50.862;4.696;2023-09-18T15:45:07;20.00;99.90